sensor_id;sensor_type;location;lat;lon;timestamp;P1;durP1;ratioP1;P2;durP2;ratioP2
12112;SDS011;6120;52.250;8.478;2023-02-11T00:01:50;69.20;;;32.75;;
12112;SDS011;6120;52.250;8.478;2023-02-11T00:04:17;75.90;;;30.48;;
12112;SDS011;6120;52.250;8.478;2023-02-11T00:06:44;75.32;;;31.58;;
12112;SDS011;6120;52.250;8.478;2023-02-11T00:09:10;74.90;;;31.85;;
12112;SDS011;6120;52.250;8.478;2023-02-11T00:11:37;77.05;;;32.28;;
12112;SDS011;6120;52.250;8.478;2023-02-11T00:14:04;73.78;;;32.10;;
12112;SDS011;6120;52.250;8.478;2023-02-11T00:16:33;82.65;;;31.90;;
12112;SDS011;6120;52.250;8.478;2023-02-11T00:19:00;71.93;;;31.25;;
12112;SDS011;6120;52.250;8.478;2023-02-11T00:21:28;78.28;;;31.63;;
12112;SDS011;6120;52.250;8.478;2023-02-11T00:23:55;72.57;;;32.85;;
12112;SDS011;6120;52.250;8.478;2023-02-11T00:26:23;74.32;;;32.78;;
12112;SDS011;6120;52.250;8.478;2023-02-11T00:28:52;87.13;;;33.35;;
12112;SDS011;6120;52.250;8.478;2023-02-11T00:31:20;83.93;;;32.95;;
12112;SDS011;6120;52.250;8.478;2023-02-11T00:36:18;75.88;;;31.00;;
12112;SDS011;6120;52.250;8.478;2023-02-11T00:38:50;78.93;;;31.65;;
12112;SDS011;6120;52.250;8.478;2023-02-11T00:41:18;81.80;;;33.75;;
12112;SDS011;6120;52.250;8.478;2023-02-11T00:43:44;76.68;;;33.10;;
12112;SDS011;6120;52.250;8.478;2023-02-11T00:46:11;79.63;;;32.40;;
12112;SDS011;6120;52.250;8.478;2023-02-11T00:48:38;74.75;;;32.38;;
12112;SDS011;6120;52.250;8.478;2023-02-11T00:51:05;77.65;;;32.65;;
12112;SDS011;6120;52.250;8.478;2023-02-11T00:53:32;81.63;;;33.97;;
12112;SDS011;6120;52.250;8.478;2023-02-11T00:55:59;76.68;;;32.70;;
12112;SDS011;6120;52.250;8.478;2023-02-11T00:58:26;76.25;;;31.17;;
12112;SDS011;6120;52.250;8.478;2023-02-11T01:00:54;81.90;;;33.13;;
12112;SDS011;6120;52.250;8.478;2023-02-11T01:03:20;85.60;;;33.85;;
12112;SDS011;6120;52.250;8.478;2023-02-11T01:05:47;80.78;;;33.45;;
12112;SDS011;6120;52.250;8.478;2023-02-11T01:08:14;72.15;;;33.63;;
12112;SDS011;6120;52.250;8.478;2023-02-11T01:10:41;73.50;;;31.35;;
12112;SDS011;6120;52.250;8.478;2023-02-11T01:13:09;70.05;;;31.55;;
12112;SDS011;6120;52.250;8.478;2023-02-11T01:15:36;69.20;;;31.70;;
12112;SDS011;6120;52.250;8.478;2023-02-11T01:18:03;75.32;;;31.70;;
12112;SDS011;6120;52.250;8.478;2023-02-11T01:20:30;77.47;;;29.90;;
12112;SDS011;6120;52.250;8.478;2023-02-11T01:22:57;73.10;;;31.27;;
12112;SDS011;6120;52.250;8.478;2023-02-11T01:25:23;69.22;;;31.60;;
12112;SDS011;6120;52.250;8.478;2023-02-11T01:27:50;89.10;;;33.75;;
12112;SDS011;6120;52.250;8.478;2023-02-11T01:30:17;71.95;;;30.10;;
12112;SDS011;6120;52.250;8.478;2023-02-11T01:32:43;72.18;;;31.95;;
12112;SDS011;6120;52.250;8.478;2023-02-11T01:35:10;71.18;;;32.55;;
12112;SDS011;6120;52.250;8.478;2023-02-11T01:37:36;76.75;;;32.42;;
12112;SDS011;6120;52.250;8.478;2023-02-11T01:40:03;72.80;;;30.98;;
12112;SDS011;6120;52.250;8.478;2023-02-11T01:42:32;78.38;;;32.92;;
12112;SDS011;6120;52.250;8.478;2023-02-11T01:44:59;77.75;;;31.85;;
12112;SDS011;6120;52.250;8.478;2023-02-11T01:47:27;88.25;;;33.17;;
12112;SDS011;6120;52.250;8.478;2023-02-11T01:49:57;80.13;;;32.58;;
12112;SDS011;6120;52.250;8.478;2023-02-11T01:52:26;72.28;;;30.95;;
12112;SDS011;6120;52.250;8.478;2023-02-11T01:54:58;79.20;;;33.08;;
12112;SDS011;6120;52.250;8.478;2023-02-11T01:57:46;75.00;;;31.08;;
12112;SDS011;6120;52.250;8.478;2023-02-11T02:03:07;76.88;;;31.25;;
12112;SDS011;6120;52.250;8.478;2023-02-11T02:05:42;82.95;;;32.60;;
12112;SDS011;6120;52.250;8.478;2023-02-11T02:08:16;78.18;;;32.17;;
12112;SDS011;6120;52.250;8.478;2023-02-11T02:10:49;80.68;;;32.42;;
12112;SDS011;6120;52.250;8.478;2023-02-11T02:13:22;79.05;;;33.10;;
12112;SDS011;6120;52.250;8.478;2023-02-11T02:15:49;81.40;;;33.13;;
12112;SDS011;6120;52.250;8.478;2023-02-11T02:40:58;78.88;;;31.67;;
12112;SDS011;6120;52.250;8.478;2023-02-11T02:43:28;82.30;;;34.97;;
12112;SDS011;6120;52.250;8.478;2023-02-11T02:46:08;90.53;;;35.40;;
12112;SDS011;6120;52.250;8.478;2023-02-11T02:48:38;84.85;;;34.33;;
12112;SDS011;6120;52.250;8.478;2023-02-11T02:51:09;85.32;;;34.63;;
12112;SDS011;6120;52.250;8.478;2023-02-11T02:56:31;94.50;;;34.78;;
12112;SDS011;6120;52.250;8.478;2023-02-11T02:59:19;78.50;;;35.20;;
12112;SDS011;6120;52.250;8.478;2023-02-11T03:07:24;86.82;;;35.35;;
12112;SDS011;6120;52.250;8.478;2023-02-11T03:10:25;97.53;;;38.90;;
12112;SDS011;6120;52.250;8.478;2023-02-11T03:12:56;92.80;;;37.72;;
12112;SDS011;6120;52.250;8.478;2023-02-11T03:15:24;84.18;;;37.17;;
12112;SDS011;6120;52.250;8.478;2023-02-11T03:17:53;108.13;;;38.92;;
12112;SDS011;6120;52.250;8.478;2023-02-11T03:20:21;96.65;;;38.08;;
12112;SDS011;6120;52.250;8.478;2023-02-11T03:22:50;90.03;;;37.45;;
12112;SDS011;6120;52.250;8.478;2023-02-11T03:25:19;88.30;;;37.10;;
12112;SDS011;6120;52.250;8.478;2023-02-11T03:27:46;89.13;;;35.22;;
12112;SDS011;6120;52.250;8.478;2023-02-11T03:30:19;91.03;;;36.30;;
12112;SDS011;6120;52.250;8.478;2023-02-11T03:32:49;95.80;;;38.13;;
12112;SDS011;6120;52.250;8.478;2023-02-11T03:35:26;92.32;;;37.42;;
12112;SDS011;6120;52.250;8.478;2023-02-11T03:38:06;86.18;;;36.67;;
12112;SDS011;6120;52.250;8.478;2023-02-11T03:40:38;85.57;;;36.03;;
12112;SDS011;6120;52.250;8.478;2023-02-11T03:43:07;94.50;;;38.28;;
12112;SDS011;6120;52.250;8.478;2023-02-11T03:45:37;84.43;;;36.72;;
12112;SDS011;6120;52.250;8.478;2023-02-11T03:48:11;93.00;;;37.30;;
12112;SDS011;6120;52.250;8.478;2023-02-11T03:50:42;80.68;;;35.35;;
12112;SDS011;6120;52.250;8.478;2023-02-11T03:53:10;88.20;;;36.40;;
12112;SDS011;6120;52.250;8.478;2023-02-11T03:55:38;88.25;;;37.03;;
12112;SDS011;6120;52.250;8.478;2023-02-11T03:58:05;77.30;;;32.85;;
12112;SDS011;6120;52.250;8.478;2023-02-11T04:00:34;82.40;;;34.70;;
12112;SDS011;6120;52.250;8.478;2023-02-11T04:03:02;77.82;;;33.97;;
12112;SDS011;6120;52.250;8.478;2023-02-11T04:05:29;85.38;;;34.00;;
12112;SDS011;6120;52.250;8.478;2023-02-11T04:07:56;77.35;;;33.78;;
12112;SDS011;6120;52.250;8.478;2023-02-11T04:10:23;79.32;;;32.28;;
12112;SDS011;6120;52.250;8.478;2023-02-11T04:12:50;73.72;;;32.75;;
12112;SDS011;6120;52.250;8.478;2023-02-11T04:15:17;74.25;;;32.47;;
12112;SDS011;6120;52.250;8.478;2023-02-11T04:17:44;80.10;;;32.83;;
12112;SDS011;6120;52.250;8.478;2023-02-11T04:20:10;76.30;;;33.10;;
12112;SDS011;6120;52.250;8.478;2023-02-11T04:22:37;72.65;;;30.80;;
12112;SDS011;6120;52.250;8.478;2023-02-11T04:25:04;71.45;;;30.58;;
12112;SDS011;6120;52.250;8.478;2023-02-11T04:27:31;76.78;;;32.88;;
12112;SDS011;6120;52.250;8.478;2023-02-11T04:29:58;72.90;;;30.58;;
12112;SDS011;6120;52.250;8.478;2023-02-11T04:32:25;63.75;;;29.70;;
12112;SDS011;6120;52.250;8.478;2023-02-11T04:34:51;71.85;;;32.17;;
12112;SDS011;6120;52.250;8.478;2023-02-11T04:37:19;62.85;;;29.80;;
12112;SDS011;6120;52.250;8.478;2023-02-11T04:39:46;68.55;;;28.70;;
12112;SDS011;6120;52.250;8.478;2023-02-11T04:42:13;68.57;;;29.55;;
12112;SDS011;6120;52.250;8.478;2023-02-11T04:44:39;53.45;;;28.15;;
12112;SDS011;6120;52.250;8.478;2023-02-11T04:47:06;65.70;;;28.23;;
12112;SDS011;6120;52.250;8.478;2023-02-11T04:49:32;60.50;;;27.88;;
12112;SDS011;6120;52.250;8.478;2023-02-11T04:51:59;60.17;;;26.45;;
12112;SDS011;6120;52.250;8.478;2023-02-11T04:54:26;54.75;;;26.92;;
12112;SDS011;6120;52.250;8.478;2023-02-11T04:56:52;59.38;;;27.70;;
12112;SDS011;6120;52.250;8.478;2023-02-11T04:59:19;60.38;;;25.67;;
12112;SDS011;6120;52.250;8.478;2023-02-11T05:01:45;66.70;;;26.60;;
12112;SDS011;6120;52.250;8.478;2023-02-11T05:04:12;55.10;;;24.38;;
12112;SDS011;6120;52.250;8.478;2023-02-11T05:06:39;57.78;;;25.58;;
12112;SDS011;6120;52.250;8.478;2023-02-11T05:09:05;54.55;;;23.98;;
12112;SDS011;6120;52.250;8.478;2023-02-11T05:11:32;55.92;;;26.80;;
12112;SDS011;6120;52.250;8.478;2023-02-11T05:13:59;54.30;;;26.85;;
12112;SDS011;6120;52.250;8.478;2023-02-11T05:16:26;58.30;;;25.92;;
12112;SDS011;6120;52.250;8.478;2023-02-11T05:18:53;57.38;;;26.27;;
12112;SDS011;6120;52.250;8.478;2023-02-11T05:21:21;55.42;;;25.95;;
12112;SDS011;6120;52.250;8.478;2023-02-11T05:23:47;55.63;;;25.67;;
12112;SDS011;6120;52.250;8.478;2023-02-11T05:26:14;56.95;;;25.30;;
12112;SDS011;6120;52.250;8.478;2023-02-11T05:28:41;55.58;;;25.65;;
12112;SDS011;6120;52.250;8.478;2023-02-11T05:31:08;56.80;;;25.75;;
12112;SDS011;6120;52.250;8.478;2023-02-11T05:33:35;53.65;;;24.95;;
12112;SDS011;6120;52.250;8.478;2023-02-11T05:36:02;51.95;;;24.63;;
12112;SDS011;6120;52.250;8.478;2023-02-11T05:38:31;55.45;;;23.67;;
12112;SDS011;6120;52.250;8.478;2023-02-11T05:40:58;54.42;;;25.35;;
12112;SDS011;6120;52.250;8.478;2023-02-11T05:43:25;49.40;;;23.63;;
12112;SDS011;6120;52.250;8.478;2023-02-11T05:45:52;62.78;;;25.70;;
12112;SDS011;6120;52.250;8.478;2023-02-11T05:48:19;57.85;;;24.58;;
12112;SDS011;6120;52.250;8.478;2023-02-11T05:50:45;50.53;;;23.90;;
12112;SDS011;6120;52.250;8.478;2023-02-11T05:53:12;52.85;;;24.55;;
12112;SDS011;6120;52.250;8.478;2023-02-11T05:55:39;57.10;;;25.35;;
12112;SDS011;6120;52.250;8.478;2023-02-11T05:58:05;47.17;;;23.40;;
12112;SDS011;6120;52.250;8.478;2023-02-11T06:00:33;52.60;;;25.05;;
12112;SDS011;6120;52.250;8.478;2023-02-11T06:03:00;50.75;;;23.55;;
12112;SDS011;6120;52.250;8.478;2023-02-11T06:05:26;52.80;;;25.13;;
12112;SDS011;6120;52.250;8.478;2023-02-11T06:07:53;57.88;;;23.83;;
12112;SDS011;6120;52.250;8.478;2023-02-11T06:10:19;55.97;;;24.40;;
12112;SDS011;6120;52.250;8.478;2023-02-11T06:12:46;59.00;;;25.02;;
12112;SDS011;6120;52.250;8.478;2023-02-11T06:15:13;51.30;;;24.77;;
12112;SDS011;6120;52.250;8.478;2023-02-11T06:17:39;55.00;;;24.92;;
12112;SDS011;6120;52.250;8.478;2023-02-11T06:20:07;54.88;;;24.90;;
12112;SDS011;6120;52.250;8.478;2023-02-11T06:22:35;63.88;;;25.77;;
12112;SDS011;6120;52.250;8.478;2023-02-11T06:25:02;53.95;;;24.30;;
12112;SDS011;6120;52.250;8.478;2023-02-11T06:27:29;53.22;;;24.40;;
12112;SDS011;6120;52.250;8.478;2023-02-11T06:29:56;56.20;;;24.67;;
12112;SDS011;6120;52.250;8.478;2023-02-11T06:32:22;61.33;;;25.88;;
12112;SDS011;6120;52.250;8.478;2023-02-11T06:35:08;57.42;;;24.20;;
12112;SDS011;6120;52.250;8.478;2023-02-11T06:37:37;46.55;;;22.55;;
12112;SDS011;6120;52.250;8.478;2023-02-11T06:40:04;64.03;;;26.58;;
12112;SDS011;6120;52.250;8.478;2023-02-11T06:42:31;61.00;;;26.08;;
12112;SDS011;6120;52.250;8.478;2023-02-11T06:44:58;55.30;;;24.80;;
12112;SDS011;6120;52.250;8.478;2023-02-11T06:47:24;56.20;;;25.10;;
12112;SDS011;6120;52.250;8.478;2023-02-11T06:49:51;54.63;;;26.02;;
12112;SDS011;6120;52.250;8.478;2023-02-11T06:52:17;58.67;;;24.42;;
12112;SDS011;6120;52.250;8.478;2023-02-11T06:54:44;63.28;;;25.63;;
12112;SDS011;6120;52.250;8.478;2023-02-11T06:57:11;60.08;;;26.45;;
12112;SDS011;6120;52.250;8.478;2023-02-11T06:59:37;52.78;;;24.05;;
12112;SDS011;6120;52.250;8.478;2023-02-11T07:02:04;57.13;;;25.42;;
12112;SDS011;6120;52.250;8.478;2023-02-11T07:04:31;61.28;;;26.15;;
12112;SDS011;6120;52.250;8.478;2023-02-11T07:06:57;56.92;;;26.08;;
12112;SDS011;6120;52.250;8.478;2023-02-11T07:09:24;58.00;;;26.13;;
12112;SDS011;6120;52.250;8.478;2023-02-11T07:11:50;60.75;;;25.15;;
12112;SDS011;6120;52.250;8.478;2023-02-11T07:14:17;50.80;;;24.48;;
12112;SDS011;6120;52.250;8.478;2023-02-11T07:16:44;60.88;;;25.67;;
12112;SDS011;6120;52.250;8.478;2023-02-11T07:19:10;56.13;;;24.67;;
12112;SDS011;6120;52.250;8.478;2023-02-11T07:21:37;54.15;;;25.50;;
12112;SDS011;6120;52.250;8.478;2023-02-11T07:24:07;50.20;;;25.52;;
12112;SDS011;6120;52.250;8.478;2023-02-11T07:26:36;65.03;;;26.30;;
12112;SDS011;6120;52.250;8.478;2023-02-11T07:29:03;60.50;;;25.40;;
12112;SDS011;6120;52.250;8.478;2023-02-11T07:31:30;55.13;;;24.75;;
12112;SDS011;6120;52.250;8.478;2023-02-11T07:33:58;60.42;;;25.23;;
12112;SDS011;6120;52.250;8.478;2023-02-11T07:36:26;59.00;;;27.90;;
12112;SDS011;6120;52.250;8.478;2023-02-11T07:41:21;53.90;;;23.85;;
12112;SDS011;6120;52.250;8.478;2023-02-11T07:43:48;72.65;;;27.85;;
12112;SDS011;6120;52.250;8.478;2023-02-11T07:46:17;55.78;;;26.27;;
12112;SDS011;6120;52.250;8.478;2023-02-11T07:48:45;63.20;;;26.90;;
12112;SDS011;6120;52.250;8.478;2023-02-11T07:51:13;62.17;;;25.52;;
12112;SDS011;6120;52.250;8.478;2023-02-11T07:53:41;62.35;;;26.13;;
12112;SDS011;6120;52.250;8.478;2023-02-11T07:56:09;63.25;;;27.33;;
12112;SDS011;6120;52.250;8.478;2023-02-11T07:58:36;62.97;;;27.15;;
12112;SDS011;6120;52.250;8.478;2023-02-11T08:01:05;64.80;;;26.17;;
12112;SDS011;6120;52.250;8.478;2023-02-11T08:03:33;61.92;;;26.40;;
12112;SDS011;6120;52.250;8.478;2023-02-11T08:06:05;64.13;;;26.52;;
12112;SDS011;6120;52.250;8.478;2023-02-11T08:08:32;69.45;;;27.27;;
12112;SDS011;6120;52.250;8.478;2023-02-11T08:11:13;63.38;;;27.50;;
12112;SDS011;6120;52.250;8.478;2023-02-11T08:13:41;57.15;;;25.58;;
12112;SDS011;6120;52.250;8.478;2023-02-11T08:16:09;61.40;;;25.70;;
12112;SDS011;6120;52.250;8.478;2023-02-11T08:18:43;68.03;;;26.52;;
12112;SDS011;6120;52.250;8.478;2023-02-11T08:21:10;61.70;;;24.77;;
12112;SDS011;6120;52.250;8.478;2023-02-11T08:23:37;64.18;;;25.95;;
12112;SDS011;6120;52.250;8.478;2023-02-11T08:26:06;64.15;;;26.67;;
12112;SDS011;6120;52.250;8.478;2023-02-11T08:28:43;65.00;;;26.02;;
12112;SDS011;6120;52.250;8.478;2023-02-11T08:31:12;60.10;;;26.53;;
12112;SDS011;6120;52.250;8.478;2023-02-11T08:33:40;56.72;;;25.90;;
12112;SDS011;6120;52.250;8.478;2023-02-11T08:36:11;63.70;;;26.77;;
12112;SDS011;6120;52.250;8.478;2023-02-11T08:38:39;69.30;;;28.73;;
12112;SDS011;6120;52.250;8.478;2023-02-11T08:41:05;61.35;;;26.67;;
12112;SDS011;6120;52.250;8.478;2023-02-11T08:43:33;66.40;;;27.77;;
12112;SDS011;6120;52.250;8.478;2023-02-11T08:46:00;73.38;;;29.60;;
12112;SDS011;6120;52.250;8.478;2023-02-11T08:48:27;66.30;;;26.63;;
12112;SDS011;6120;52.250;8.478;2023-02-11T08:50:54;69.25;;;30.27;;
12112;SDS011;6120;52.250;8.478;2023-02-11T08:53:21;65.03;;;27.08;;
12112;SDS011;6120;52.250;8.478;2023-02-11T08:55:52;80.80;;;29.30;;
12112;SDS011;6120;52.250;8.478;2023-02-11T08:58:19;72.93;;;28.60;;
12112;SDS011;6120;52.250;8.478;2023-02-11T09:00:47;66.75;;;28.00;;
12112;SDS011;6120;52.250;8.478;2023-02-11T09:03:15;65.93;;;27.25;;
12112;SDS011;6120;52.250;8.478;2023-02-11T09:05:46;68.75;;;28.55;;
12112;SDS011;6120;52.250;8.478;2023-02-11T09:08:15;72.70;;;29.70;;
12112;SDS011;6120;52.250;8.478;2023-02-11T09:10:42;70.70;;;28.33;;
12112;SDS011;6120;52.250;8.478;2023-02-11T09:13:09;69.03;;;27.63;;
12112;SDS011;6120;52.250;8.478;2023-02-11T09:15:36;64.88;;;26.17;;
12112;SDS011;6120;52.250;8.478;2023-02-11T09:18:03;73.25;;;28.73;;
12112;SDS011;6120;52.250;8.478;2023-02-11T09:20:30;73.78;;;28.60;;
12112;SDS011;6120;52.250;8.478;2023-02-11T09:22:57;65.47;;;28.33;;
12112;SDS011;6120;52.250;8.478;2023-02-11T09:25:24;75.97;;;30.10;;
12112;SDS011;6120;52.250;8.478;2023-02-11T09:27:51;77.20;;;29.85;;
12112;SDS011;6120;52.250;8.478;2023-02-11T09:30:19;79.43;;;29.13;;
12112;SDS011;6120;52.250;8.478;2023-02-11T09:32:45;71.97;;;30.15;;
12112;SDS011;6120;52.250;8.478;2023-02-11T09:35:12;67.47;;;28.92;;
12112;SDS011;6120;52.250;8.478;2023-02-11T09:37:38;64.90;;;27.55;;
12112;SDS011;6120;52.250;8.478;2023-02-11T09:40:05;74.63;;;30.73;;
12112;SDS011;6120;52.250;8.478;2023-02-11T09:42:40;72.30;;;29.50;;
12112;SDS011;6120;52.250;8.478;2023-02-11T09:45:19;85.78;;;32.22;;
12112;SDS011;6120;52.250;8.478;2023-02-11T09:47:53;84.07;;;32.28;;
12112;SDS011;6120;52.250;8.478;2023-02-11T09:50:24;81.45;;;31.88;;
12112;SDS011;6120;52.250;8.478;2023-02-11T09:52:56;79.07;;;30.38;;
12112;SDS011;6120;52.250;8.478;2023-02-11T09:55:34;82.75;;;31.50;;
12112;SDS011;6120;52.250;8.478;2023-02-11T09:58:09;77.97;;;31.15;;
12112;SDS011;6120;52.250;8.478;2023-02-11T10:01:25;77.72;;;33.22;;
12112;SDS011;6120;52.250;8.478;2023-02-11T10:17:33;94.00;;;32.95;;
12112;SDS011;6120;52.250;8.478;2023-02-11T10:20:17;86.50;;;35.10;;
12112;SDS011;6120;52.250;8.478;2023-02-11T10:25:22;81.78;;;32.47;;
12112;SDS011;6120;52.250;8.478;2023-02-11T10:28:15;86.90;;;32.63;;
12112;SDS011;6120;52.250;8.478;2023-02-11T10:31:07;86.20;;;32.83;;
12112;SDS011;6120;52.250;8.478;2023-02-11T10:36:27;83.80;;;34.13;;
12112;SDS011;6120;52.250;8.478;2023-02-11T10:38:57;92.95;;;34.88;;
12112;SDS011;6120;52.250;8.478;2023-02-11T10:41:27;91.40;;;33.78;;
12112;SDS011;6120;52.250;8.478;2023-02-11T10:43:56;94.47;;;37.38;;
12112;SDS011;6120;52.250;8.478;2023-02-11T10:46:28;101.88;;;38.22;;
12112;SDS011;6120;52.250;8.478;2023-02-11T10:48:56;83.55;;;34.75;;
12112;SDS011;6120;52.250;8.478;2023-02-11T10:51:24;91.03;;;35.85;;
12112;SDS011;6120;52.250;8.478;2023-02-11T10:56:32;86.43;;;35.38;;
12112;SDS011;6120;52.250;8.478;2023-02-11T10:59:43;92.53;;;33.92;;
12112;SDS011;6120;52.250;8.478;2023-02-11T11:06:56;93.32;;;36.17;;
12112;SDS011;6120;52.250;8.478;2023-02-11T11:09:57;95.20;;;36.55;;
12112;SDS011;6120;52.250;8.478;2023-02-11T11:15:14;87.25;;;34.88;;
12112;SDS011;6120;52.250;8.478;2023-02-11T11:17:49;98.55;;;35.42;;
12112;SDS011;6120;52.250;8.478;2023-02-11T11:22:50;87.63;;;35.60;;
12112;SDS011;6120;52.250;8.478;2023-02-11T11:27:49;94.18;;;33.97;;
12112;SDS011;6120;52.250;8.478;2023-02-11T11:30:17;81.78;;;34.55;;
12112;SDS011;6120;52.250;8.478;2023-02-11T11:32:44;87.68;;;35.85;;
12112;SDS011;6120;52.250;8.478;2023-02-11T11:35:22;92.80;;;34.88;;
12112;SDS011;6120;52.250;8.478;2023-02-11T11:37:56;79.45;;;32.42;;
12112;SDS011;6120;52.250;8.478;2023-02-11T11:40:29;87.32;;;34.45;;
12112;SDS011;6120;52.250;8.478;2023-02-11T11:45:29;84.78;;;32.70;;
12112;SDS011;6120;52.250;8.478;2023-02-11T11:48:12;87.63;;;33.83;;
12112;SDS011;6120;52.250;8.478;2023-02-11T11:50:46;78.95;;;31.50;;
12112;SDS011;6120;52.250;8.478;2023-02-11T11:53:23;83.43;;;31.25;;
12112;SDS011;6120;52.250;8.478;2023-02-11T11:58:36;93.25;;;33.65;;
12112;SDS011;6120;52.250;8.478;2023-02-11T12:15:30;82.25;;;32.08;;
12112;SDS011;6120;52.250;8.478;2023-02-11T12:26:18;77.93;;;32.38;;
12112;SDS011;6120;52.250;8.478;2023-02-11T12:32:02;78.88;;;31.63;;
12112;SDS011;6120;52.250;8.478;2023-02-11T12:50:44;78.05;;;30.15;;
12112;SDS011;6120;52.250;8.478;2023-02-11T12:56:09;87.90;;;31.67;;
12112;SDS011;6120;52.250;8.478;2023-02-11T12:58:40;87.30;;;33.00;;
12112;SDS011;6120;52.250;8.478;2023-02-11T13:01:31;85.18;;;34.20;;
12112;SDS011;6120;52.250;8.478;2023-02-11T13:04:05;84.25;;;33.30;;
12112;SDS011;6120;52.250;8.478;2023-02-11T13:06:39;87.22;;;33.58;;
12112;SDS011;6120;52.250;8.478;2023-02-11T13:09:16;81.03;;;32.03;;
12112;SDS011;6120;52.250;8.478;2023-02-11T13:11:50;89.30;;;29.52;;
12112;SDS011;6120;52.250;8.478;2023-02-11T13:14:24;87.22;;;30.98;;
12112;SDS011;6120;52.250;8.478;2023-02-11T13:16:54;73.80;;;29.70;;
12112;SDS011;6120;52.250;8.478;2023-02-11T13:19:32;79.75;;;29.80;;
12112;SDS011;6120;52.250;8.478;2023-02-11T13:24:39;88.93;;;31.52;;
12112;SDS011;6120;52.250;8.478;2023-02-11T13:37:55;74.63;;;30.75;;
12112;SDS011;6120;52.250;8.478;2023-02-11T13:40:23;82.07;;;29.80;;
12112;SDS011;6120;52.250;8.478;2023-02-11T13:43:01;80.10;;;29.05;;
12112;SDS011;6120;52.250;8.478;2023-02-11T13:45:32;78.82;;;28.42;;
12112;SDS011;6120;52.250;8.478;2023-02-11T13:48:03;79.28;;;28.83;;
12112;SDS011;6120;52.250;8.478;2023-02-11T13:50:36;63.05;;;26.85;;
12112;SDS011;6120;52.250;8.478;2023-02-11T13:53:04;67.90;;;27.33;;
12112;SDS011;6120;52.250;8.478;2023-02-11T13:55:32;72.88;;;28.38;;
12112;SDS011;6120;52.250;8.478;2023-02-11T14:14:17;61.20;;;25.40;;
12112;SDS011;6120;52.250;8.478;2023-02-11T14:22:04;68.15;;;27.10;;
12112;SDS011;6120;52.250;8.478;2023-02-11T14:24:40;69.60;;;25.98;;
12112;SDS011;6120;52.250;8.478;2023-02-11T14:41:06;62.40;;;26.42;;
12112;SDS011;6120;52.250;8.478;2023-02-11T14:43:41;58.28;;;24.98;;
12112;SDS011;6120;52.250;8.478;2023-02-11T14:46:11;63.20;;;25.02;;
12112;SDS011;6120;52.250;8.478;2023-02-11T14:48:42;62.65;;;25.20;;
12112;SDS011;6120;52.250;8.478;2023-02-11T14:51:18;62.53;;;26.33;;
12112;SDS011;6120;52.250;8.478;2023-02-11T14:53:49;71.10;;;26.10;;
12112;SDS011;6120;52.250;8.478;2023-02-11T14:56:17;65.38;;;26.38;;
12112;SDS011;6120;52.250;8.478;2023-02-11T14:58:47;58.50;;;25.80;;
12112;SDS011;6120;52.250;8.478;2023-02-11T15:01:21;66.97;;;24.95;;
12112;SDS011;6120;52.250;8.478;2023-02-11T15:03:58;66.07;;;25.83;;
12112;SDS011;6120;52.250;8.478;2023-02-11T15:06:30;56.33;;;23.58;;
12112;SDS011;6120;52.250;8.478;2023-02-11T15:11:46;60.92;;;24.83;;
12112;SDS011;6120;52.250;8.478;2023-02-11T15:14:23;54.35;;;25.05;;
12112;SDS011;6120;52.250;8.478;2023-02-11T15:16:52;54.28;;;24.30;;
12112;SDS011;6120;52.250;8.478;2023-02-11T15:19:25;62.58;;;24.52;;
12112;SDS011;6120;52.250;8.478;2023-02-11T15:21:59;54.83;;;24.27;;
12112;SDS011;6120;52.250;8.478;2023-02-11T15:24:28;47.92;;;21.70;;
12112;SDS011;6120;52.250;8.478;2023-02-11T15:27:00;60.70;;;23.02;;
12112;SDS011;6120;52.250;8.478;2023-02-11T15:29:36;49.78;;;23.13;;
12112;SDS011;6120;52.250;8.478;2023-02-11T15:32:23;60.17;;;25.10;;
12112;SDS011;6120;52.250;8.478;2023-02-11T15:34:51;60.15;;;24.33;;
12112;SDS011;6120;52.250;8.478;2023-02-11T15:37:26;58.92;;;23.60;;
12112;SDS011;6120;52.250;8.478;2023-02-11T15:40:07;57.17;;;25.95;;
12112;SDS011;6120;52.250;8.478;2023-02-11T15:42:43;57.03;;;23.90;;
12112;SDS011;6120;52.250;8.478;2023-02-11T15:45:25;53.20;;;24.65;;
12112;SDS011;6120;52.250;8.478;2023-02-11T15:47:57;52.85;;;21.92;;
12112;SDS011;6120;52.250;8.478;2023-02-11T15:50:26;58.80;;;23.85;;
12112;SDS011;6120;52.250;8.478;2023-02-11T15:52:55;55.40;;;23.33;;
12112;SDS011;6120;52.250;8.478;2023-02-11T15:55:23;49.95;;;22.55;;
12112;SDS011;6120;52.250;8.478;2023-02-11T15:57:55;57.92;;;24.40;;
12112;SDS011;6120;52.250;8.478;2023-02-11T16:00:24;56.65;;;24.52;;
12112;SDS011;6120;52.250;8.478;2023-02-11T16:03:02;62.22;;;26.38;;
12112;SDS011;6120;52.250;8.478;2023-02-11T16:07:57;52.55;;;22.23;;
12112;SDS011;6120;52.250;8.478;2023-02-11T16:10:26;48.97;;;23.00;;
12112;SDS011;6120;52.250;8.478;2023-02-11T16:18:03;54.17;;;23.08;;
12112;SDS011;6120;52.250;8.478;2023-02-11T16:20:39;53.97;;;23.70;;
12112;SDS011;6120;52.250;8.478;2023-02-11T16:23:05;58.20;;;24.20;;
12112;SDS011;6120;52.250;8.478;2023-02-11T16:25:36;51.63;;;23.35;;
12112;SDS011;6120;52.250;8.478;2023-02-11T16:28:02;59.92;;;23.92;;
12112;SDS011;6120;52.250;8.478;2023-02-11T16:30:34;53.05;;;23.50;;
12112;SDS011;6120;52.250;8.478;2023-02-11T16:33:07;55.63;;;25.52;;
12112;SDS011;6120;52.250;8.478;2023-02-11T16:35:34;55.85;;;22.48;;
12112;SDS011;6120;52.250;8.478;2023-02-11T16:38:02;46.70;;;22.48;;
12112;SDS011;6120;52.250;8.478;2023-02-11T16:40:29;55.05;;;22.75;;
12112;SDS011;6120;52.250;8.478;2023-02-11T16:42:55;47.90;;;22.08;;
12112;SDS011;6120;52.250;8.478;2023-02-11T16:45:22;50.97;;;21.70;;
12112;SDS011;6120;52.250;8.478;2023-02-11T16:47:48;43.38;;;19.50;;
12112;SDS011;6120;52.250;8.478;2023-02-11T16:50:22;50.75;;;22.00;;
12112;SDS011;6120;52.250;8.478;2023-02-11T16:52:50;44.58;;;21.55;;
12112;SDS011;6120;52.250;8.478;2023-02-11T16:55:17;56.42;;;23.70;;
12112;SDS011;6120;52.250;8.478;2023-02-11T16:57:47;46.75;;;22.90;;
12112;SDS011;6120;52.250;8.478;2023-02-11T17:02:41;56.28;;;23.65;;
12112;SDS011;6120;52.250;8.478;2023-02-11T17:05:14;49.92;;;23.30;;
12112;SDS011;6120;52.250;8.478;2023-02-11T17:07:43;43.08;;;20.40;;
12112;SDS011;6120;52.250;8.478;2023-02-11T17:10:28;51.17;;;22.08;;
12112;SDS011;6120;52.250;8.478;2023-02-11T17:12:55;49.72;;;21.17;;
12112;SDS011;6120;52.250;8.478;2023-02-11T17:15:22;45.05;;;21.40;;
12112;SDS011;6120;52.250;8.478;2023-02-11T17:17:49;53.22;;;21.42;;
12112;SDS011;6120;52.250;8.478;2023-02-11T17:20:15;48.80;;;21.10;;
12112;SDS011;6120;52.250;8.478;2023-02-11T17:22:42;54.85;;;21.75;;
12112;SDS011;6120;52.250;8.478;2023-02-11T17:25:09;46.70;;;20.65;;
12112;SDS011;6120;52.250;8.478;2023-02-11T17:27:35;41.25;;;20.60;;
12112;SDS011;6120;52.250;8.478;2023-02-11T17:30:03;49.40;;;21.52;;
12112;SDS011;6120;52.250;8.478;2023-02-11T17:32:30;41.40;;;20.17;;
12112;SDS011;6120;52.250;8.478;2023-02-11T17:34:57;43.60;;;21.13;;
12112;SDS011;6120;52.250;8.478;2023-02-11T17:37:23;47.75;;;20.27;;
12112;SDS011;6120;52.250;8.478;2023-02-11T17:39:50;46.75;;;19.90;;
12112;SDS011;6120;52.250;8.478;2023-02-11T17:42:16;44.53;;;19.65;;
12112;SDS011;6120;52.250;8.478;2023-02-11T17:44:44;50.33;;;22.65;;
12112;SDS011;6120;52.250;8.478;2023-02-11T17:47:11;43.20;;;22.20;;
12112;SDS011;6120;52.250;8.478;2023-02-11T17:49:38;50.70;;;21.20;;
12112;SDS011;6120;52.250;8.478;2023-02-11T17:52:05;44.63;;;21.20;;
12112;SDS011;6120;52.250;8.478;2023-02-11T17:54:31;46.97;;;21.75;;